Time;durP1;ratioP1;P1;durP2;ratioP2;P2;SDS_P1;SDS_P2;PMS_P1;PMS_P2;Temp;Humidity;BMP_temperature;BMP_pressure;BME280_temperature;BME280_humidity;BME280_pressure;Samples;Min_cycle;Max_cycle;Signal;HPM_P1;HPM_P2
2021/10/08 00:01:39;;;;;;;0.98;0.50;;;8.70;99.90;;;;;;4989749;28;20544;-68
2021/10/08 00:04:05;;;;;;;1.30;0.40;;;8.70;99.90;;;;;;4989849;28;20026;-68
2021/10/08 00:06:31;;;;;;;2.65;0.45;;;8.70;99.90;;;;;;4991628;28;20503;-68
2021/10/08 00:08:57;;;;;;;0.95;0.40;;;8.70;99.90;;;;;;4993160;28;20069;-68
2021/10/08 00:11:23;;;;;;;0.40;0.40;;;8.70;99.90;;;;;;4992909;28;20046;-68
2021/10/08 00:13:49;;;;;;;0.30;0.30;;;8.70;99.90;;;;;;4992786;28;20034;-68
2021/10/08 00:16:15;;;;;;;1.75;0.28;;;8.70;99.90;;;;;;4993100;28;20527;-68
2021/10/08 00:18:41;;;;;;;0.40;0.40;;;8.70;99.90;;;;;;4992616;28;20030;-68
2021/10/08 00:21:08;;;;;;;0.63;0.32;;;8.70;99.90;;;;;;4993123;28;20018;-68
2021/10/08 00:23:34;;;;;;;0.60;0.38;;;8.70;99.90;;;;;;4992625;28;20029;-68
2021/10/08 00:25:59;;;;;;;4.05;0.40;;;8.80;99.90;;;;;;4992743;28;20022;-68
2021/10/08 00:28:25;;;;;;;1.02;0.45;;;8.70;99.90;;;;;;4992670;28;20035;-67
2021/10/08 00:30:51;;;;;;;2.40;0.50;;;8.70;99.90;;;;;;4992773;28;20035;-67
2021/10/08 00:33:17;;;;;;;1.00;0.40;;;8.70;99.90;;;;;;4992619;28;20022;-67
2021/10/08 00:35:43;;;;;;;3.05;0.50;;;8.70;99.90;;;;;;4992435;28;20035;-68
2021/10/08 00:38:09;;;;;;;3.65;0.60;;;8.70;99.90;;;;;;4992579;28;20022;-67
2021/10/08 00:40:39;;;;;;;1.35;0.60;;;8.70;99.90;;;;;;4992674;28;20022;-68
2021/10/08 00:43:05;;;;;;;1.35;0.40;;;8.70;99.90;;;;;;4992501;28;20079;-68
2021/10/08 00:45:31;;;;;;;4.35;0.50;;;8.70;99.90;;;;;;4992244;28;20113;-68
2021/10/08 00:47:59;;;;;;;3.15;1.13;;;8.70;99.90;;;;;;4992722;28;20034;-68
2021/10/08 00:50:25;;;;;;;0.50;0.40;;;8.70;99.90;;;;;;4992310;28;20101;-68
2021/10/08 00:52:51;;;;;;;2.15;0.70;;;8.70;99.90;;;;;;4992187;28;20026;-67
2021/10/08 00:55:17;;;;;;;1.88;0.60;;;8.80;99.90;;;;;;4992174;28;20046;-67
2021/10/08 00:57:45;;;;;;;0.82;0.47;;;8.80;99.90;;;;;;4992415;28;20490;-67
2021/10/08 01:00:15;;;;;;;1.67;1.17;;;8.70;99.90;;;;;;4992242;28;20503;-68
2021/10/08 01:02:41;;;;;;;1.17;0.60;;;8.70;99.90;;;;;;4992360;28;20023;-68
2021/10/08 01:05:08;;;;;;;1.95;0.50;;;8.70;99.90;;;;;;4992429;28;20038;-67
2021/10/08 01:07:34;;;;;;;2.60;0.70;;;8.70;99.90;;;;;;4992029;28;20023;-67
2021/10/08 01:09:59;;;;;;;2.10;0.50;;;8.70;99.90;;;;;;4992040;28;20095;-67
2021/10/08 01:12:25;;;;;;;2.83;0.60;;;8.70;99.90;;;;;;4992061;28;20037;-67
2021/10/08 01:14:51;;;;;;;0.50;0.50;;;8.70;99.90;;;;;;4991945;28;20207;-68
2021/10/08 01:17:20;;;;;;;3.05;0.63;;;8.60;99.90;;;;;;4991620;28;20677;-68
2021/10/08 01:19:46;;;;;;;0.55;0.52;;;8.60;99.90;;;;;;4992178;28;20357;-68
2021/10/08 01:22:13;;;;;;;1.65;0.50;;;8.60;99.90;;;;;;4991989;28;20026;-68
2021/10/08 01:24:38;;;;;;;3.13;0.63;;;8.60;99.90;;;;;;4991771;28;20378;-67
2021/10/08 01:27:08;;;;;;;0.73;0.40;;;8.60;99.90;;;;;;4992101;28;20037;-68
2021/10/08 01:29:51;;;;;;;2.95;0.60;;;8.60;99.90;;;;;;4991586;28;20482;-67
2021/10/08 01:32:16;;;;;;;4.45;0.80;;;8.70;99.90;;;;;;4991876;28;20027;-67
2021/10/08 01:34:42;;;;;;;0.70;0.50;;;8.70;99.90;;;;;;4991825;28;20026;-67
2021/10/08 01:37:08;;;;;;;1.75;0.50;;;8.70;99.90;;;;;;4991662;28;20478;-67
2021/10/08 01:39:34;;;;;;;0.50;0.50;;;8.70;99.90;;;;;;4991485;28;20127;-67
2021/10/08 01:41:59;;;;;;;5.75;0.50;;;8.70;99.90;;;;;;4991966;28;20022;-67
2021/10/08 01:44:25;;;;;;;0.40;0.40;;;8.70;99.90;;;;;;4991456;28;20027;-67
2021/10/08 01:46:51;;;;;;;0.90;0.40;;;8.70;99.90;;;;;;4991500;28;20025;-67
2021/10/08 01:49:16;;;;;;;0.40;0.40;;;8.70;99.90;;;;;;4991434;28;20479;-68
2021/10/08 01:51:42;;;;;;;2.15;0.50;;;8.60;99.90;;;;;;4991361;28;20389;-67
2021/10/08 01:54:09;;;;;;;1.75;0.50;;;8.60;99.90;;;;;;4991600;28;20057;-67
2021/10/08 01:56:35;;;;;;;3.55;0.50;;;8.60;99.90;;;;;;4991130;28;20145;-67
2021/10/08 01:59:02;;;;;;;0.65;0.40;;;8.60;99.90;;;;;;4991294;28;20636;-67
2021/10/08 02:01:28;;;;;;;0.90;0.45;;;8.70;99.90;;;;;;4991289;28;20113;-67
2021/10/08 02:03:53;;;;;;;0.40;0.40;;;8.70;99.90;;;;;;4991172;28;20030;-67
2021/10/08 02:06:19;;;;;;;1.83;0.57;;;8.60;99.90;;;;;;4991535;28;20037;-67
2021/10/08 02:08:45;;;;;;;0.40;0.40;;;8.70;99.90;;;;;;4991149;28;20043;-67
2021/10/08 02:11:11;;;;;;;2.75;0.40;;;8.60;99.90;;;;;;4991228;28;20030;-67
2021/10/08 02:13:36;;;;;;;2.75;0.50;;;8.60;99.90;;;;;;4991198;28;20022;-67
2021/10/08 02:16:03;;;;;;;1.05;0.52;;;8.60;99.90;;;;;;4991333;28;20102;-68
2021/10/08 02:18:29;;;;;;;7.07;0.60;;;8.60;99.90;;;;;;4991093;28;20019;-67
2021/10/08 02:20:55;;;;;;;1.52;0.60;;;8.60;99.90;;;;;;4991021;28;20109;-67
2021/10/08 02:23:21;;;;;;;0.60;0.60;;;8.60;99.90;;;;;;4990983;28;20050;-67
2021/10/08 02:54:51;;;;;;;0.80;0.50;;;8.70;99.90;;;;;;4990138;28;20030;-68
2021/10/08 02:57:16;;;;;;;7.55;0.73;;;8.70;99.90;;;;;;4990739;28;20035;-68
2021/10/08 02:59:42;;;;;;;0.63;0.60;;;8.70;99.90;;;;;;4990169;28;20029;-68
2021/10/08 03:02:08;;;;;;;5.07;0.80;;;8.70;99.90;;;;;;4990402;28;20030;-68
2021/10/08 03:04:33;;;;;;;2.15;0.80;;;8.70;99.90;;;;;;4990317;28;20029;-68
2021/10/08 03:06:59;;;;;;;1.48;0.80;;;8.70;99.90;;;;;;4990442;28;20041;-68
2021/10/08 03:09:25;;;;;;;2.72;0.85;;;8.60;99.90;;;;;;4990197;28;20026;-68
2021/10/08 03:11:51;;;;;;;2.08;0.77;;;8.70;99.90;;;;;;4990309;28;20084;-67
2021/10/08 03:14:17;;;;;;;0.95;0.95;;;8.60;99.90;;;;;;4990214;28;20056;-68
2021/10/08 03:16:42;;;;;;;1.08;0.90;;;8.70;99.90;;;;;;4990357;28;20042;-67
2021/10/08 03:19:08;;;;;;;0.85;0.70;;;8.70;99.90;;;;;;4990098;28;20026;-67
2021/10/08 03:21:34;;;;;;;1.38;0.85;;;8.70;99.90;;;;;;4990405;28;20126;-68
2021/10/08 03:24:00;;;;;;;1.33;0.80;;;8.70;99.90;;;;;;4989910;28;20432;-68
2021/10/08 03:26:25;;;;;;;1.40;0.60;;;8.70;99.90;;;;;;4990295;28;20498;-68
2021/10/08 03:28:51;;;;;;;1.42;0.70;;;8.70;99.90;;;;;;4989706;28;20397;-66
2021/10/08 03:31:17;;;;;;;1.20;0.60;;;8.70;99.90;;;;;;4990233;28;20030;-66
2021/10/08 03:33:43;;;;;;;1.92;0.70;;;8.70;99.90;;;;;;4990023;28;20494;-66
2021/10/08 03:36:14;;;;;;;2.13;0.80;;;8.70;99.90;;;;;;4989942;28;20075;-67
2021/10/08 03:38:40;;;;;;;3.22;0.60;;;8.70;99.90;;;;;;4989898;28;20485;-66
2021/10/08 03:41:10;;;;;;;1.85;0.80;;;8.70;99.90;;;;;;4989726;28;20081;-66
2021/10/08 03:43:36;;;;;;;0.70;0.57;;;8.70;99.90;;;;;;4990097;28;20046;-66
2021/10/08 03:46:06;;;;;;;8.15;0.80;;;8.70;99.90;;;;;;4989947;28;20184;-66
2021/10/08 03:50:59;;;;;;;3.85;1.00;;;8.70;99.90;;;;;;4989806;28;20050;-66
2021/10/08 03:53:25;;;;;;;2.50;0.60;;;8.70;99.90;;;;;;4989744;28;20026;-66
2021/10/08 03:55:50;;;;;;;1.63;0.88;;;8.70;99.90;;;;;;4989481;28;20054;-66
2021/10/08 03:58:16;;;;;;;1.23;0.90;;;8.70;99.90;;;;;;4989746;28;20019;-66
2021/10/08 04:00:42;;;;;;;3.35;0.80;;;8.60;99.90;;;;;;4989670;28;20029;-66
2021/10/08 04:03:08;;;;;;;0.90;0.80;;;8.60;99.90;;;;;;4989574;28;20519;-66
2021/10/08 04:05:34;;;;;;;1.00;0.60;;;8.60;99.90;;;;;;4990057;28;20050;-66
2021/10/08 04:08:00;;;;;;;5.57;0.90;;;8.60;99.90;;;;;;4989668;28;20560;-66
2021/10/08 04:10:26;;;;;;;0.63;0.60;;;8.60;99.90;;;;;;4989591;28;20126;-66
2021/10/08 04:12:52;;;;;;;2.75;0.80;;;8.60;99.90;;;;;;4989415;28;20023;-66
2021/10/08 04:15:18;;;;;;;1.90;0.68;;;8.60;99.90;;;;;;4989482;28;20058;-66
2021/10/08 04:17:43;;;;;;;1.05;0.65;;;8.60;99.90;;;;;;4989424;28;20061;-66
2021/10/08 04:20:09;;;;;;;1.30;0.90;;;8.60;99.90;;;;;;4989221;28;20026;-66
2021/10/08 04:22:35;;;;;;;1.02;0.60;;;8.60;99.90;;;;;;4989688;28;20030;-66
2021/10/08 04:25:02;;;;;;;0.70;0.65;;;8.60;99.90;;;;;;4989331;28;20049;-66
2021/10/08 04:27:28;;;;;;;4.65;0.80;;;8.60;99.90;;;;;;4989421;28;20037;-65
2021/10/08 04:29:54;;;;;;;0.60;0.60;;;8.60;99.90;;;;;;4989103;28;20047;-67
2021/10/08 04:32:19;;;;;;;2.13;0.90;;;8.60;99.90;;;;;;4989484;28;20106;-70
2021/10/08 04:34:45;;;;;;;6.13;0.70;;;8.60;99.90;;;;;;4989035;28;20596;-67
2021/10/08 04:37:11;;;;;;;39.63;1.40;;;8.60;99.90;;;;;;4989206;28;20026;-71
2021/10/08 04:39:37;;;;;;;3.88;0.60;;;8.60;99.90;;;;;;4988995;28;20034;-69
2021/10/08 04:42:02;;;;;;;13.20;2.88;;;9.20;99.90;;;;;;4988928;28;20022;-68
2021/10/08 04:44:30;;;;;;;2.80;0.98;;;10.40;99.90;;;;;;4989007;28;20385;-72
2021/10/08 04:46:56;;;;;;;5.80;0.73;;;10.30;99.90;;;;;;4987504;28;20027;-75
2021/10/08 04:49:21;;;;;;;2.25;1.17;;;9.90;99.90;;;;;;4988313;28;20042;-72
2021/10/08 04:51:47;;;;;;;9.18;2.10;;;9.60;99.90;;;;;;4989474;28;20062;-71
2021/10/08 04:54:13;;;;;;;3.60;1.20;;;9.40;99.90;;;;;;4991769;28;20410;-71
2021/10/08 04:56:38;;;;;;;7.47;1.42;;;9.30;99.90;;;;;;4991723;28;20053;-72
2021/10/08 04:59:04;;;;;;;10.75;2.85;;;9.30;99.90;;;;;;4991536;28;20084;-73
2021/10/08 05:01:30;;;;;;;19.23;3.30;;;9.30;99.90;;;;;;4991752;28;20030;-70
2021/10/08 05:03:56;;;;;;;7.25;1.25;;;9.30;99.90;;;;;;4991706;28;20025;-75
2021/10/08 05:06:22;;;;;;;2.00;0.60;;;9.30;99.90;;;;;;4992141;28;20026;-73
2021/10/08 05:08:48;;;;;;;1.55;0.70;;;9.20;99.90;;;;;;4991217;28;20026;-75
2021/10/08 05:11:14;;;;;;;3.97;0.90;;;9.10;99.90;;;;;;4992015;28;20034;-74
2021/10/08 05:13:40;;;;;;;1.40;0.82;;;9.10;99.90;;;;;;4991448;28;20029;-75
2021/10/08 05:16:05;;;;;;;2.35;0.77;;;9.10;99.90;;;;;;4991498;28;20030;-75
2021/10/08 05:18:31;;;;;;;4.53;0.88;;;9.10;99.90;;;;;;4991608;28;20022;-75
2021/10/08 05:20:57;;;;;;;3.03;0.80;;;9.00;99.90;;;;;;4991279;28;20023;-75
2021/10/08 05:23:23;;;;;;;1.20;0.73;;;9.00;99.90;;;;;;4991378;28;20026;-75
2021/10/08 05:25:48;;;;;;;5.10;1.10;;;9.00;99.90;;;;;;4992037;28;20027;-74
2021/10/08 05:28:14;;;;;;;3.13;0.90;;;9.00;99.90;;;;;;4991782;28;20026;-75
2021/10/08 05:30:40;;;;;;;7.50;1.58;;;9.20;99.90;;;;;;4992125;28;20070;-73
2021/10/08 05:33:05;;;;;;;6.75;1.40;;;9.10;99.90;;;;;;4991868;28;20029;-73
2021/10/08 05:35:31;;;;;;;2.83;0.70;;;9.10;99.90;;;;;;4991172;28;20034;-75
2021/10/08 05:37:57;;;;;;;27.40;1.58;;;9.00;99.90;;;;;;4991243;28;20025;-75
2021/10/08 05:40:23;;;;;;;3.38;1.30;;;9.00;99.90;;;;;;4991531;28;20146;-77
2021/10/08 05:42:49;;;;;;;3.78;1.48;;;9.00;99.90;;;;;;4991600;28;20469;-80
2021/10/08 05:45:14;;;;;;;4.40;1.10;;;9.00;99.90;;;;;;4991730;28;20034;-79
2021/10/08 05:47:41;;;;;;;5.05;1.30;;;9.00;99.90;;;;;;4991234;28;20034;-79
2021/10/08 05:50:07;;;;;;;2.35;1.30;;;9.10;99.90;;;;;;4991201;28;20083;-78
2021/10/08 05:52:33;;;;;;;4.13;1.65;;;9.10;99.90;;;;;;4991391;28;20358;-78
2021/10/08 05:54:58;;;;;;;2.92;1.15;;;9.00;99.90;;;;;;4991268;28;20110;-78
2021/10/08 05:57:24;;;;;;;5.07;2.28;;;9.00;99.90;;;;;;4991337;28;20023;-78
2021/10/08 05:59:50;;;;;;;2.45;1.90;;;9.00;99.90;;;;;;4991097;28;20377;-79
2021/10/08 06:02:15;;;;;;;5.53;1.88;;;8.90;99.90;;;;;;4991353;28;20039;-79
2021/10/08 06:04:41;;;;;;;7.68;3.13;;;8.90;99.90;;;;;;4991240;28;20029;-75
2021/10/08 06:07:08;;;;;;;8.70;3.45;;;8.90;99.90;;;;;;4990975;28;20030;-75
2021/10/08 06:09:37;;;;;;;8.77;3.15;;;8.90;99.90;;;;;;4990751;28;20037;-78
2021/10/08 06:12:03;;;;;;;8.82;3.50;;;8.90;99.90;;;;;;4990770;28;20034;-80
2021/10/08 06:14:29;;;;;;;30.17;5.30;;;8.90;99.90;;;;;;4987344;28;20130;-81
2021/10/08 06:16:55;;;;;;;12.30;3.88;;;8.90;99.90;;;;;;4985076;28;20027;-74
2021/10/08 06:19:21;;;;;;;12.95;3.35;;;8.90;99.90;;;;;;4988856;28;20079;-73
2021/10/08 06:21:46;;;;;;;19.92;5.65;;;8.90;99.90;;;;;;4990964;28;20035;-73
2021/10/08 06:24:12;;;;;;;6.70;4.05;;;9.00;99.90;;;;;;4990927;28;20426;-71
2021/10/08 06:26:38;;;;;;;8.23;4.32;;;9.00;99.90;;;;;;4980557;28;20495;-68
2021/10/08 06:29:03;;;;;;;9.43;4.53;;;9.00;99.90;;;;;;4976212;28;20129;-69
2021/10/08 06:31:29;;;;;;;10.30;5.10;;;9.00;99.90;;;;;;4984166;28;20027;-71
2021/10/08 06:33:55;;;;;;;6.68;5.05;;;9.00;99.90;;;;;;4977958;28;20117;-70
2021/10/08 06:36:21;;;;;;;6.43;5.05;;;9.00;99.90;;;;;;4990528;28;20026;-72
2021/10/08 06:38:46;;;;;;;5.63;4.15;;;9.10;99.90;;;;;;4978292;28;20027;-70
2021/10/08 06:41:12;;;;;;;5.75;4.72;;;9.60;99.90;;;;;;4978075;28;20021;-71
2021/10/08 06:43:39;;;;;;;8.88;4.85;;;9.60;99.90;;;;;;4990303;28;20034;-72
2021/10/08 06:46:04;;;;;;;7.60;4.10;;;9.50;99.90;;;;;;4977937;28;20030;-72
2021/10/08 06:48:30;;;;;;;6.88;4.07;;;9.40;99.90;;;;;;4978386;28;20385;-72
2021/10/08 06:50:57;;;;;;;9.93;4.22;;;9.30;99.90;;;;;;4977605;28;20042;-72
2021/10/08 06:53:23;;;;;;;4.35;3.95;;;9.30;99.90;;;;;;4974199;28;20080;-71
2021/10/08 06:55:49;;;;;;;72.22;6.25;;;9.30;99.90;;;;;;4970448;28;20082;-67
2021/10/08 06:58:15;;;;;;;9.60;3.88;;;9.30;99.90;;;;;;4970946;28;20478;-68
2021/10/08 07:00:41;;;;;;;9.00;3.28;;;9.40;99.90;;;;;;4974977;28;20421;-67
2021/10/08 07:03:06;;;;;;;6.70;3.30;;;9.40;99.90;;;;;;4990094;28;20037;-67
2021/10/08 07:05:32;;;;;;;7.72;3.28;;;9.30;99.90;;;;;;4990245;28;20038;-67
2021/10/08 07:07:58;;;;;;;6.65;2.30;;;9.30;99.90;;;;;;4990190;28;20058;-67
2021/10/08 07:10:25;;;;;;;18.63;2.65;;;9.30;99.90;;;;;;4990196;28;20457;-67
2021/10/08 07:12:50;;;;;;;12.57;2.80;;;9.30;99.90;;;;;;4990172;28;20022;-68
2021/10/08 07:15:17;;;;;;;6.38;2.80;;;9.20;99.90;;;;;;4989334;28;20041;-68
2021/10/08 07:17:46;;;;;;;4.57;2.50;;;9.70;99.90;;;;;;4990422;28;20034;-67
2021/10/08 07:20:14;;;;;;;7.93;3.15;;;10.90;99.90;;;;;;4989910;28;20096;-72
2021/10/08 07:22:40;;;;;;;5.25;1.70;;;11.40;99.90;;;;;;4990201;28;20019;-68
2021/10/08 07:25:07;;;;;;;3.95;2.20;;;10.80;99.90;;;;;;4989660;28;20026;-66
2021/10/08 07:27:34;;;;;;;2.45;1.90;;;11.00;99.90;;;;;;4990107;28;20022;-66
2021/10/08 07:30:00;;;;;;;9.77;1.60;;;11.00;99.90;;;;;;4988632;28;20050;-67
2021/10/08 07:32:27;;;;;;;7.93;2.10;;;10.60;99.90;;;;;;4989965;28;20023;-67
2021/10/08 07:34:53;;;;;;;4.25;1.70;;;10.30;99.90;;;;;;4989923;28;20045;-67
2021/10/08 07:37:19;;;;;;;9.43;1.50;;;10.10;99.90;;;;;;4989898;28;20033;-67
2021/10/08 07:39:44;;;;;;;3.08;1.80;;;10.00;99.90;;;;;;4989867;28;20030;-67
2021/10/08 07:42:10;;;;;;;7.75;2.00;;;9.90;99.90;;;;;;4989403;28;20090;-67
2021/10/08 07:44:36;;;;;;;5.07;2.55;;;9.80;99.90;;;;;;4989764;28;20048;-67
2021/10/08 07:47:02;;;;;;;7.30;2.63;;;9.70;99.90;;;;;;4989735;28;20485;-67
2021/10/08 07:49:28;;;;;;;4.40;1.80;;;9.70;99.90;;;;;;4989616;28;20438;-67
2021/10/08 07:51:53;;;;;;;5.15;2.30;;;9.70;99.90;;;;;;4989807;28;20030;-66
2021/10/08 07:54:19;;;;;;;6.70;2.65;;;9.60;99.90;;;;;;4989582;28;20028;-67
2021/10/08 07:56:45;;;;;;;3.17;1.92;;;9.60;99.90;;;;;;4989825;28;20623;-67
2021/10/08 07:59:10;;;;;;;2.20;2.00;;;9.60;99.90;;;;;;4989670;28;20449;-67
2021/10/08 08:01:36;;;;;;;4.75;2.40;;;9.60;99.90;;;;;;4989977;28;20019;-66
2021/10/08 08:04:02;;;;;;;3.78;2.28;;;9.60;99.90;;;;;;4989445;28;20490;-66
2021/10/08 08:06:28;;;;;;;6.35;2.42;;;9.60;99.90;;;;;;4989558;28;20067;-67
2021/10/08 08:08:53;;;;;;;5.35;2.10;;;9.60;99.90;;;;;;4989712;28;20033;-66
2021/10/08 08:11:19;;;;;;;2.50;2.30;;;9.60;99.90;;;;;;4989492;28;20030;-66
2021/10/08 08:13:45;;;;;;;4.05;2.28;;;9.60;99.90;;;;;;4989320;28;20033;-66
2021/10/08 08:16:10;;;;;;;4.05;2.30;;;9.60;99.90;;;;;;4989462;28;20082;-66
2021/10/08 08:18:36;;;;;;;4.80;2.10;;;9.60;99.90;;;;;;4989441;28;20023;-66
2021/10/08 08:21:03;;;;;;;3.13;2.40;;;9.60;99.90;;;;;;4989094;28;20518;-66
2021/10/08 08:23:29;;;;;;;5.60;2.70;;;9.60;99.90;;;;;;4989336;28;20556;-66
2021/10/08 08:25:55;;;;;;;11.35;4.15;;;9.60;99.90;;;;;;4989163;28;20160;-66
2021/10/08 08:28:22;;;;;;;5.90;3.20;;;9.60;99.90;;;;;;4992686;28;20053;-68
2021/10/08 08:30:48;;;;;;;4.88;3.08;;;9.60;99.90;;;;;;4992801;28;20040;-69
2021/10/08 08:33:14;;;;;;;4.63;2.50;;;9.90;99.90;;;;;;4992244;28;20025;-70
2021/10/08 08:35:40;;;;;;;3.03;2.03;;;9.80;99.90;;;;;;4992561;28;20382;-71
2021/10/08 08:38:06;;;;;;;5.15;2.25;;;9.80;99.90;;;;;;4992368;28;20058;-68
2021/10/08 08:40:32;;;;;;;4.55;2.03;;;9.70;99.90;;;;;;4992561;28;20030;-71
2021/10/08 08:42:59;;;;;;;2.92;2.08;;;9.70;99.90;;;;;;4992072;28;20030;-71
2021/10/08 08:45:26;;;;;;;3.33;2.53;;;9.70;99.90;;;;;;4992328;28;20382;-71
2021/10/08 08:48:03;;;;;;;3.33;2.40;;;9.60;99.90;;;;;;4991292;28;20489;-67
2021/10/08 08:50:30;;;;;;;2.00;1.80;;;9.50;99.90;;;;;;4992100;28;20047;-68
2021/10/08 08:52:55;;;;;;;5.00;2.05;;;9.50;99.90;;;;;;4992338;28;20087;-68
2021/10/08 08:55:22;;;;;;;2.15;1.65;;;9.50;99.90;;;;;;4991694;28;20493;-68
2021/10/08 08:57:48;;;;;;;1.83;1.60;;;9.50;99.90;;;;;;4991800;28;20030;-68
2021/10/08 09:00:17;;;;;;;2.28;2.00;;;9.50;99.90;;;;;;4991759;28;20026;-68
2021/10/08 09:02:44;;;;;;;3.75;1.90;;;9.40;99.90;;;;;;4991378;28;20033;-69
2021/10/08 09:05:18;;;;;;;2.10;1.80;;;9.40;99.90;;;;;;4991460;28;20023;-68
2021/10/08 09:07:44;;;;;;;2.88;2.03;;;9.40;99.90;;;;;;4991722;28;20042;-71
2021/10/08 09:10:18;;;;;;;3.95;2.05;;;9.40;99.90;;;;;;4991394;28;20073;-71
2021/10/08 09:12:46;;;;;;;3.45;2.20;;;9.40;99.90;;;;;;4992105;28;20075;-70
2021/10/08 09:15:13;;;;;;;5.07;1.95;;;9.40;99.90;;;;;;4991929;28;20050;-69
2021/10/08 09:17:39;;;;;;;3.70;1.92;;;9.40;99.90;;;;;;4991095;28;20054;-70
2021/10/08 09:20:10;;;;;;;5.72;1.90;;;9.40;99.90;;;;;;4990356;28;20018;-70
2021/10/08 09:22:40;;;;;;;3.15;1.88;;;9.40;99.90;;;;;;4991087;28;20022;-70
2021/10/08 09:25:15;;;;;;;6.63;1.65;;;9.40;99.90;;;;;;4991370;28;20115;-69
2021/10/08 09:27:52;;;;;;;3.50;1.80;;;9.40;99.90;;;;;;4991867;28;20505;-69
2021/10/08 09:30:18;;;;;;;3.20;2.08;;;9.40;99.90;;;;;;4991469;28;20039;-69
2021/10/08 09:32:50;;;;;;;2.85;1.38;;;9.30;99.90;;;;;;4991771;28;20018;-69
2021/10/08 09:35:19;;;;;;;2.58;1.77;;;9.30;99.90;;;;;;4991642;28;20097;-69
2021/10/08 09:37:54;;;;;;;1.67;1.58;;;9.30;99.90;;;;;;4991298;28;20026;-69
2021/10/08 09:40:26;;;;;;;2.80;1.20;;;9.30;99.90;;;;;;4991493;28;20034;-69
2021/10/08 09:42:58;;;;;;;6.47;1.30;;;9.40;99.90;;;;;;4991505;28;20385;-70
2021/10/08 09:45:56;;;;;;;6.68;1.05;;;9.40;99.90;;;;;;4991271;28;20113;-69
2021/10/08 09:48:42;;;;;;;2.00;1.20;;;9.40;99.90;;;;;;4994859;28;20035;-70
2021/10/08 09:51:16;;;;;;;1.92;0.90;;;9.30;99.90;;;;;;4991245;28;20035;-70
2021/10/08 09:53:48;;;;;;;4.22;0.90;;;9.30;99.90;;;;;;4991499;28;20026;-70
2021/10/08 09:56:39;;;;;;;0.90;0.73;;;9.30;99.90;;;;;;4990925;28;20501;-70
2021/10/08 09:59:08;;;;;;;0.95;0.90;;;9.30;99.90;;;;;;4991336;28;20035;-70
2021/10/08 10:01:35;;;;;;;2.47;1.20;;;9.30;99.90;;;;;;4991388;28;20037;-70
2021/10/08 10:04:03;;;;;;;2.53;1.23;;;9.30;99.90;;;;;;4991269;28;20030;-70
2021/10/08 10:06:29;;;;;;;1.00;0.88;;;9.20;99.90;;;;;;4991338;28;20035;-70
2021/10/08 10:08:55;;;;;;;1.83;1.10;;;9.20;99.90;;;;;;4991132;28;20026;-70
2021/10/08 10:11:23;;;;;;;2.85;1.10;;;9.20;99.90;;;;;;4990085;28;20030;-72
2021/10/08 10:13:55;;;;;;;4.20;1.10;;;9.20;99.90;;;;;;4990413;28;20018;-72
2021/10/08 10:16:21;;;;;;;0.90;0.90;;;9.20;99.90;;;;;;4990518;28;20034;-70
2021/10/08 10:18:48;;;;;;;2.90;1.20;;;9.20;99.90;;;;;;4989189;28;20029;-70
2021/10/08 10:21:22;;;;;;;1.13;1.02;;;9.10;99.90;;;;;;4989781;28;20367;-70
2021/10/08 10:23:55;;;;;;;1.35;1.10;;;9.20;99.90;;;;;;4990733;28;20026;-67
2021/10/08 10:26:22;;;;;;;1.33;1.20;;;9.20;99.90;;;;;;4988685;28;20015;-67
2021/10/08 10:28:48;;;;;;;5.68;1.20;;;9.20;99.90;;;;;;4987952;28;20751;-67
2021/10/08 10:31:16;;;;;;;2.45;1.10;;;9.30;99.90;;;;;;4990061;28;20092;-67
2021/10/08 10:33:42;;;;;;;2.30;1.20;;;9.30;99.90;;;;;;4990695;28;20413;-67
2021/10/08 10:36:41;;;;;;;4.75;1.30;;;9.30;99.90;;;;;;4990258;28;20019;-67
2021/10/08 10:39:13;;;;;;;6.22;1.73;;;9.30;99.90;;;;;;5001036;28;20030;-67
2021/10/08 10:41:44;;;;;;;2.80;1.35;;;9.20;99.90;;;;;;4987538;28;20058;-67
2021/10/08 10:44:22;;;;;;;4.70;1.95;;;9.30;99.90;;;;;;4990027;28;20018;-67
2021/10/08 10:51:59;;;;;;;5.82;1.70;;;9.30;99.90;;;;;;4990134;28;20242;-68
2021/10/08 10:54:52;;;;;;;11.25;1.75;;;9.30;99.90;;;;;;4990243;28;20034;-68
2021/10/08 10:57:30;;;;;;;5.55;1.52;;;9.30;99.90;;;;;;4974209;28;20035;-70
2021/10/08 11:00:24;;;;;;;1.42;1.20;;;9.30;99.90;;;;;;4974359;28;20079;-70
2021/10/08 11:03:11;;;;;;;2.00;1.20;;;9.30;99.90;;;;;;4990280;28;20031;-69
2021/10/08 11:05:39;;;;;;;1.33;1.23;;;9.30;99.90;;;;;;4990225;28;20022;-69
2021/10/08 11:08:07;;;;;;;2.90;1.77;;;9.30;99.90;;;;;;4987277;28;20049;-69
2021/10/08 11:10:37;;;;;;;6.10;2.40;;;9.30;99.90;;;;;;4982368;28;20532;-69
2021/10/08 11:13:27;;;;;;;;;;;9.30;99.90;;;;;;4975389;28;20027;-69
2021/10/08 11:16:00;;;;;;;4.07;1.70;;;9.40;99.90;;;;;;4970008;28;19975;-69
2021/10/08 11:18:38;;;;;;;7.50;1.80;;;9.40;99.90;;;;;;4969623;28;20033;-70
2021/10/08 11:21:05;;;;;;;2.50;1.65;;;9.40;99.90;;;;;;4978463;28;20481;-69
2021/10/08 11:23:33;;;;;;;3.53;1.60;;;9.50;99.90;;;;;;4989331;28;20033;-70
2021/10/08 11:26:19;;;;;;;3.58;1.70;;;9.50;99.90;;;;;;4989837;28;20517;-69
2021/10/08 11:28:46;;;;;;;2.42;1.50;;;9.50;99.90;;;;;;4989880;28;20035;-71
2021/10/08 11:31:17;;;;;;;1.90;1.50;;;9.60;99.90;;;;;;4989577;28;20034;-71
2021/10/08 11:33:53;;;;;;;2.90;1.63;;;9.60;99.90;;;;;;4989879;28;20026;-70
2021/10/08 11:36:18;;;;;;;2.90;1.50;;;9.70;99.90;;;;;;4989990;28;20041;-71
2021/10/08 11:38:45;;;;;;;2.92;1.65;;;9.70;99.90;;;;;;4989793;28;20023;-70
2021/10/08 11:41:24;;;;;;;3.13;1.60;;;9.70;99.90;;;;;;4989866;28;20035;-71
2021/10/08 11:44:12;;;;;;;5.05;2.10;;;9.70;99.90;;;;;;4989801;28;20019;-69
2021/10/08 11:46:53;;;;;;;2.30;1.70;;;9.70;99.90;;;;;;4989652;28;20030;-69
2021/10/08 11:51:53;;;;;;;10.38;4.03;;;9.70;99.90;;;;;;4989779;28;20099;-68
2021/10/08 11:54:19;;;;;;;3.45;2.03;;;9.80;99.90;;;;;;4989363;28;20113;-69
2021/10/08 11:56:58;;;;;;;2.40;1.63;;;9.80;99.90;;;;;;4989260;28;20055;-69
2021/10/08 11:59:25;;;;;;;11.45;1.80;;;9.90;99.90;;;;;;4989531;28;20035;-67
2021/10/08 12:02:12;;;;;;;6.70;1.83;;;10.50;99.90;;;;;;4992410;28;20107;-68
2021/10/08 12:05:00;;;;;;;1.58;1.48;;;11.70;99.90;;;;;;4993344;28;20058;-68
2021/10/08 12:07:29;;;;;;;2.38;1.40;;;11.60;99.90;;;;;;4992771;28;20738;-68
2021/10/08 12:10:13;;;;;;;1.80;1.35;;;11.10;99.90;;;;;;4991626;28;20035;-69
2021/10/08 12:12:56;;;;;;;3.38;1.38;;;10.80;99.90;;;;;;4993150;28;20045;-68
2021/10/08 12:15:27;;;;;;;3.53;1.55;;;10.60;99.90;;;;;;4992638;28;20477;-68
2021/10/08 12:17:55;;;;;;;2.85;1.77;;;10.50;99.90;;;;;;4993125;28;20054;-69
2021/10/08 12:20:26;;;;;;;2.05;1.60;;;10.50;99.90;;;;;;4992561;28;20067;-68
2021/10/08 12:23:14;;;;;;;2.80;1.80;;;10.40;99.90;;;;;;4993007;28;20037;-68
2021/10/08 12:25:42;;;;;;;2.47;2.00;;;10.50;99.90;;;;;;4992595;28;20117;-68
2021/10/08 12:28:09;;;;;;;18.52;5.55;;;10.40;99.90;;;;;;4992712;28;20026;-68
2021/10/08 12:31:09;;;;;;;3.92;2.50;;;10.40;99.90;;;;;;4992764;28;20038;-68
2021/10/08 12:33:42;;;;;;;4.35;2.10;;;10.50;99.90;;;;;;4992644;28;20027;-68
2021/10/08 12:36:23;;;;;;;1.60;1.50;;;10.50;99.90;;;;;;4992649;28;20516;-68
2021/10/08 12:38:57;;;;;;;3.42;1.77;;;11.40;99.90;;;;;;4992499;28;20590;-68
2021/10/08 12:41:30;;;;;;;2.85;2.03;;;11.50;99.90;;;;;;4991302;28;20018;-68
2021/10/08 12:44:21;;;;;;;2.80;1.90;;;11.20;99.90;;;;;;4991337;28;20030;-69
2021/10/08 12:49:52;;;;;;;4.00;2.47;;;10.90;99.90;;;;;;4991703;28;20057;-68
2021/10/08 12:52:40;;;;;;;2.30;1.90;;;10.80;99.90;;;;;;4991310;28;20488;-68
2021/10/08 12:55:17;;;;;;;2.50;2.08;;;10.80;99.90;;;;;;4991216;28;20072;-69
2021/10/08 12:58:10;;;;;;;3.08;2.25;;;10.80;99.90;;;;;;4991724;28;20092;-68
2021/10/08 13:00:39;;;;;;;2.45;2.08;;;10.80;99.90;;;;;;4991920;28;20099;-68
2021/10/08 13:03:07;;;;;;;1.77;1.67;;;10.80;99.90;;;;;;4992495;28;20018;-69
2021/10/08 13:05:43;;;;;;;1.60;1.50;;;10.70;99.90;;;;;;4991903;28;20121;-68
2021/10/08 13:08:19;;;;;;;2.35;1.55;;;10.70;99.90;;;;;;4992175;28;20027;-68
2021/10/08 13:11:07;;;;;;;3.33;1.58;;;10.70;99.90;;;;;;4992098;28;20050;-68
2021/10/08 13:13:46;;;;;;;1.80;1.50;;;10.70;99.90;;;;;;4991531;28;20148;-68
2021/10/08 13:16:12;;;;;;;2.90;1.40;;;10.70;99.90;;;;;;4992242;28;20054;-69
2021/10/08 13:18:43;;;;;;;2.45;1.33;;;10.70;99.90;;;;;;4991457;28;20029;-68
2021/10/08 13:21:09;;;;;;;2.83;1.35;;;10.70;99.90;;;;;;4991778;28;20029;-68
2021/10/08 13:23:35;;;;;;;1.40;1.30;;;10.60;99.90;;;;;;4991453;28;20025;-68
2021/10/08 13:26:01;;;;;;;1.77;1.65;;;10.60;99.90;;;;;;4991655;28;20026;-71
2021/10/08 13:28:27;;;;;;;2.45;1.40;;;10.70;99.90;;;;;;4991710;28;20022;-71
2021/10/08 13:30:55;;;;;;;1.20;1.10;;;10.70;99.90;;;;;;4991291;28;20031;-71
2021/10/08 13:33:22;;;;;;;5.38;1.38;;;10.70;99.90;;;;;;4991002;28;20027;-71
2021/10/08 13:35:53;;;;;;;1.58;1.30;;;10.70;99.90;;;;;;4990125;28;20618;-71
2021/10/08 13:38:20;;;;;;;1.20;1.10;;;10.70;99.90;;;;;;4990451;28;20030;-71
2021/10/08 13:40:47;;;;;;;2.17;1.20;;;10.70;99.90;;;;;;4990354;28;20105;-71
2021/10/08 13:43:13;;;;;;;1.75;1.20;;;10.70;99.90;;;;;;4990408;28;20030;-71
2021/10/08 13:45:39;;;;;;;1.30;1.20;;;10.70;99.90;;;;;;4990493;28;20080;-71